AZUH

Nakhchivan

Nakhchivan, Azerbaijan
METAR AZUH 181953Z 02010KT CAVOK M01/M06 Q1018
Observed Flight Rules
Jan-18 @ 19:53 UTC (24 minutes ago) Visual Flight Rules
Wind Visibility Clouds
20° at 10 knots 10,000+ meters
  • Clear skies
Temperatures Readings
Current -1°C / 30°F
Dewpoint -6°C / 21°F
Humidity 69%
Altimeter 30.06" Hg
Pressure 1017.92 hPa
Elevation 855
METAR AZUH 181953Z 02010KT CAVOK M01/M06 Q1018
Observed Flight Rules
Jan-18 @ 19:53 UTC
(24 minutes ago)
VFR
Wind Visibility
20° at 10 knots 10,000+ meters
Clouds
  • Clear skies
Temperature Dewpoint
-1°C / 30°F -6°C / 21°F
Humidity Altimeter Pressure
69% 30.06" Hg 1017.92 hPa